sensor_id;sensor_type;location;lat;lon;timestamp;temperature;humidity
15700;DHT22;7950;42.744;23.174;2023-06-22T00:02:18;16.40;99.90
15700;DHT22;7950;42.744;23.174;2023-06-22T00:04:47;16.30;99.90
15700;DHT22;7950;42.744;23.174;2023-06-22T00:07:15;16.30;99.90
15700;DHT22;7950;42.744;23.174;2023-06-22T00:09:44;16.30;99.90
15700;DHT22;7950;42.744;23.174;2023-06-22T00:12:12;16.30;99.90
15700;DHT22;7950;42.744;23.174;2023-06-22T00:14:41;16.20;99.90
15700;DHT22;7950;42.744;23.174;2023-06-22T00:17:11;16.20;99.90
15700;DHT22;7950;42.744;23.174;2023-06-22T00:19:39;16.20;99.90
15700;DHT22;7950;42.744;23.174;2023-06-22T00:22:08;16.20;99.90
15700;DHT22;7950;42.744;23.174;2023-06-22T00:24:36;16.20;99.90
15700;DHT22;7950;42.744;23.174;2023-06-22T00:27:05;16.20;99.90
15700;DHT22;7950;42.744;23.174;2023-06-22T00:29:34;16.30;99.90
15700;DHT22;7950;42.744;23.174;2023-06-22T00:32:03;16.20;99.90
15700;DHT22;7950;42.744;23.174;2023-06-22T00:34:33;16.20;99.90
15700;DHT22;7950;42.744;23.174;2023-06-22T00:37:02;16.20;99.90
15700;DHT22;7950;42.744;23.174;2023-06-22T00:39:31;16.10;99.90
15700;DHT22;7950;42.744;23.174;2023-06-22T00:42:00;16.10;99.90
15700;DHT22;7950;42.744;23.174;2023-06-22T00:44:29;16.20;99.90
15700;DHT22;7950;42.744;23.174;2023-06-22T00:46:58;16.20;99.90
15700;DHT22;7950;42.744;23.174;2023-06-22T00:49:27;16.10;99.90
15700;DHT22;7950;42.744;23.174;2023-06-22T00:51:57;16.10;99.90
15700;DHT22;7950;42.744;23.174;2023-06-22T00:54:27;16.10;99.90
15700;DHT22;7950;42.744;23.174;2023-06-22T00:56:57;16.00;99.90
15700;DHT22;7950;42.744;23.174;2023-06-22T00:59:26;16.00;99.90
15700;DHT22;7950;42.744;23.174;2023-06-22T01:01:55;16.10;99.90
15700;DHT22;7950;42.744;23.174;2023-06-22T01:04:33;16.10;99.90
15700;DHT22;7950;42.744;23.174;2023-06-22T01:07:10;16.00;99.90
15700;DHT22;7950;42.744;23.174;2023-06-22T01:09:51;16.00;99.90
15700;DHT22;7950;42.744;23.174;2023-06-22T01:12:25;16.00;99.90
15700;DHT22;7950;42.744;23.174;2023-06-22T01:15:04;15.90;99.90
15700;DHT22;7950;42.744;23.174;2023-06-22T01:17:40;15.90;99.90
15700;DHT22;7950;42.744;23.174;2023-06-22T01:20:13;15.90;99.90
15700;DHT22;7950;42.744;23.174;2023-06-22T01:22:52;15.90;99.90
15700;DHT22;7950;42.744;23.174;2023-06-22T01:25:36;15.90;99.90
15700;DHT22;7950;42.744;23.174;2023-06-22T01:28:24;15.80;99.90
15700;DHT22;7950;42.744;23.174;2023-06-22T01:31:18;15.80;99.90
15700;DHT22;7950;42.744;23.174;2023-06-22T01:33:52;15.70;99.90
15700;DHT22;7950;42.744;23.174;2023-06-22T01:36:24;15.70;99.90
15700;DHT22;7950;42.744;23.174;2023-06-22T01:38:54;15.80;99.90
15700;DHT22;7950;42.744;23.174;2023-06-22T01:41:25;15.70;99.90
15700;DHT22;7950;42.744;23.174;2023-06-22T01:43:56;15.70;99.90
15700;DHT22;7950;42.744;23.174;2023-06-22T01:46:26;15.70;99.90
15700;DHT22;7950;42.744;23.174;2023-06-22T01:48:55;15.70;99.90
15700;DHT22;7950;42.744;23.174;2023-06-22T01:51:24;15.70;99.90
15700;DHT22;7950;42.744;23.174;2023-06-22T01:53:52;15.70;99.90
15700;DHT22;7950;42.744;23.174;2023-06-22T01:56:21;15.70;99.90
15700;DHT22;7950;42.744;23.174;2023-06-22T01:59:00;15.70;99.90
15700;DHT22;7950;42.744;23.174;2023-06-22T02:01:42;15.70;99.90
15700;DHT22;7950;42.744;23.174;2023-06-22T02:04:19;15.70;99.90
15700;DHT22;7950;42.744;23.174;2023-06-22T02:06:56;15.70;99.90
15700;DHT22;7950;42.744;23.174;2023-06-22T02:09:30;15.70;99.90
15700;DHT22;7950;42.744;23.174;2023-06-22T02:12:02;15.70;99.90
15700;DHT22;7950;42.744;23.174;2023-06-22T02:14:33;15.70;99.90
15700;DHT22;7950;42.744;23.174;2023-06-22T02:17:05;15.80;99.90
15700;DHT22;7950;42.744;23.174;2023-06-22T02:19:36;15.80;99.90
15700;DHT22;7950;42.744;23.174;2023-06-22T02:22:06;15.80;99.90
15700;DHT22;7950;42.744;23.174;2023-06-22T02:24:34;15.70;99.90
15700;DHT22;7950;42.744;23.174;2023-06-22T02:27:04;15.70;99.90
15700;DHT22;7950;42.744;23.174;2023-06-22T02:29:34;15.70;99.90
15700;DHT22;7950;42.744;23.174;2023-06-22T02:32:03;15.70;99.90
15700;DHT22;7950;42.744;23.174;2023-06-22T02:34:33;15.70;99.90
15700;DHT22;7950;42.744;23.174;2023-06-22T02:37:04;15.60;99.90
15700;DHT22;7950;42.744;23.174;2023-06-22T02:39:32;15.60;99.90
15700;DHT22;7950;42.744;23.174;2023-06-22T02:42:01;15.60;99.90
15700;DHT22;7950;42.744;23.174;2023-06-22T02:47:20;15.50;99.90
15700;DHT22;7950;42.744;23.174;2023-06-22T02:49:49;15.50;99.90
15700;DHT22;7950;42.744;23.174;2023-06-22T02:52:17;15.40;99.90
15700;DHT22;7950;42.744;23.174;2023-06-22T02:54:46;15.40;99.90
15700;DHT22;7950;42.744;23.174;2023-06-22T02:57:14;15.40;99.90
15700;DHT22;7950;42.744;23.174;2023-06-22T02:59:43;15.40;99.90
15700;DHT22;7950;42.744;23.174;2023-06-22T03:02:11;15.40;99.90
15700;DHT22;7950;42.744;23.174;2023-06-22T03:04:41;15.30;99.90
15700;DHT22;7950;42.744;23.174;2023-06-22T03:07:10;15.30;99.90
15700;DHT22;7950;42.744;23.174;2023-06-22T03:09:39;15.30;99.90
15700;DHT22;7950;42.744;23.174;2023-06-22T03:12:09;15.40;99.90
15700;DHT22;7950;42.744;23.174;2023-06-22T03:14:38;15.40;99.90
15700;DHT22;7950;42.744;23.174;2023-06-22T03:17:06;15.30;99.90
15700;DHT22;7950;42.744;23.174;2023-06-22T03:19:35;15.40;99.90
15700;DHT22;7950;42.744;23.174;2023-06-22T03:22:05;15.30;99.90
15700;DHT22;7950;42.744;23.174;2023-06-22T03:24:33;15.30;99.90
15700;DHT22;7950;42.744;23.174;2023-06-22T03:27:04;15.40;99.90
15700;DHT22;7950;42.744;23.174;2023-06-22T03:29:33;15.40;99.90
15700;DHT22;7950;42.744;23.174;2023-06-22T03:32:02;15.50;99.90
15700;DHT22;7950;42.744;23.174;2023-06-22T03:34:33;15.60;99.90
15700;DHT22;7950;42.744;23.174;2023-06-22T03:37:05;15.60;99.90
15700;DHT22;7950;42.744;23.174;2023-06-22T03:39:34;15.70;99.90
15700;DHT22;7950;42.744;23.174;2023-06-22T03:42:03;15.80;99.90
15700;DHT22;7950;42.744;23.174;2023-06-22T03:44:32;15.90;99.90
15700;DHT22;7950;42.744;23.174;2023-06-22T03:47:00;15.90;99.90
15700;DHT22;7950;42.744;23.174;2023-06-22T03:49:29;16.00;99.90
15700;DHT22;7950;42.744;23.174;2023-06-22T03:51:57;16.00;99.90
15700;DHT22;7950;42.744;23.174;2023-06-22T03:54:28;15.90;99.90
15700;DHT22;7950;42.744;23.174;2023-06-22T03:56:57;16.00;99.90
15700;DHT22;7950;42.744;23.174;2023-06-22T03:59:26;16.00;99.90
15700;DHT22;7950;42.744;23.174;2023-06-22T04:01:55;16.10;99.90
15700;DHT22;7950;42.744;23.174;2023-06-22T04:04:23;16.20;99.90
15700;DHT22;7950;42.744;23.174;2023-06-22T04:06:52;16.30;99.90
15700;DHT22;7950;42.744;23.174;2023-06-22T04:09:20;16.30;99.90
15700;DHT22;7950;42.744;23.174;2023-06-22T04:11:51;16.50;99.90
15700;DHT22;7950;42.744;23.174;2023-06-22T04:14:19;16.60;99.90
15700;DHT22;7950;42.744;23.174;2023-06-22T04:16:48;16.80;99.90
15700;DHT22;7950;42.744;23.174;2023-06-22T04:19:16;16.90;99.90
15700;DHT22;7950;42.744;23.174;2023-06-22T04:21:45;17.10;99.90
15700;DHT22;7950;42.744;23.174;2023-06-22T04:24:15;17.30;99.90
15700;DHT22;7950;42.744;23.174;2023-06-22T04:26:44;17.40;99.90
15700;DHT22;7950;42.744;23.174;2023-06-22T04:29:15;17.50;99.90
15700;DHT22;7950;42.744;23.174;2023-06-22T04:31:43;17.60;99.90
15700;DHT22;7950;42.744;23.174;2023-06-22T04:34:15;17.80;99.90
15700;DHT22;7950;42.744;23.174;2023-06-22T04:36:43;17.90;99.90
15700;DHT22;7950;42.744;23.174;2023-06-22T04:39:12;18.00;99.90
15700;DHT22;7950;42.744;23.174;2023-06-22T04:41:41;18.20;99.90
15700;DHT22;7950;42.744;23.174;2023-06-22T04:44:10;18.30;99.90
15700;DHT22;7950;42.744;23.174;2023-06-22T04:46:40;18.50;99.90
15700;DHT22;7950;42.744;23.174;2023-06-22T04:49:09;18.60;99.90
15700;DHT22;7950;42.744;23.174;2023-06-22T04:51:40;18.80;99.90
15700;DHT22;7950;42.744;23.174;2023-06-22T04:54:10;18.90;99.90
15700;DHT22;7950;42.744;23.174;2023-06-22T04:56:39;19.10;99.90
15700;DHT22;7950;42.744;23.174;2023-06-22T04:59:08;19.20;99.90
15700;DHT22;7950;42.744;23.174;2023-06-22T05:01:41;19.40;99.90
15700;DHT22;7950;42.744;23.174;2023-06-22T05:04:10;19.50;99.90
15700;DHT22;7950;42.744;23.174;2023-06-22T05:06:39;19.70;99.90
15700;DHT22;7950;42.744;23.174;2023-06-22T05:09:07;19.80;99.90
15700;DHT22;7950;42.744;23.174;2023-06-22T05:11:36;20.00;99.90
15700;DHT22;7950;42.744;23.174;2023-06-22T05:14:05;20.10;99.90
15700;DHT22;7950;42.744;23.174;2023-06-22T05:16:34;20.20;99.90
15700;DHT22;7950;42.744;23.174;2023-06-22T05:19:04;20.30;99.90
15700;DHT22;7950;42.744;23.174;2023-06-22T05:21:33;20.40;99.90
15700;DHT22;7950;42.744;23.174;2023-06-22T05:24:02;20.60;99.90
15700;DHT22;7950;42.744;23.174;2023-06-22T05:26:31;20.70;99.90
15700;DHT22;7950;42.744;23.174;2023-06-22T05:29:02;20.80;99.90
15700;DHT22;7950;42.744;23.174;2023-06-22T05:31:32;20.90;99.90
15700;DHT22;7950;42.744;23.174;2023-06-22T05:34:01;21.00;99.90
15700;DHT22;7950;42.744;23.174;2023-06-22T05:36:31;21.10;99.90
15700;DHT22;7950;42.744;23.174;2023-06-22T05:38:59;21.20;99.90
15700;DHT22;7950;42.744;23.174;2023-06-22T05:41:39;21.40;99.90
15700;DHT22;7950;42.744;23.174;2023-06-22T05:44:08;21.50;99.90
15700;DHT22;7950;42.744;23.174;2023-06-22T05:46:37;21.60;99.90
15700;DHT22;7950;42.744;23.174;2023-06-22T05:49:11;21.60;99.90
15700;DHT22;7950;42.744;23.174;2023-06-22T05:51:42;21.70;99.90
15700;DHT22;7950;42.744;23.174;2023-06-22T05:54:11;21.70;99.90
15700;DHT22;7950;42.744;23.174;2023-06-22T05:56:42;21.70;99.90
15700;DHT22;7950;42.744;23.174;2023-06-22T05:59:11;21.90;99.90
15700;DHT22;7950;42.744;23.174;2023-06-22T06:01:40;22.00;99.90
15700;DHT22;7950;42.744;23.174;2023-06-22T06:04:08;22.10;99.90
15700;DHT22;7950;42.744;23.174;2023-06-22T06:06:37;22.20;99.90
15700;DHT22;7950;42.744;23.174;2023-06-22T06:09:07;22.30;99.90
15700;DHT22;7950;42.744;23.174;2023-06-22T06:11:36;22.50;99.90
15700;DHT22;7950;42.744;23.174;2023-06-22T06:14:04;22.50;99.90
15700;DHT22;7950;42.744;23.174;2023-06-22T06:16:33;22.70;99.90
15700;DHT22;7950;42.744;23.174;2023-06-22T06:19:01;22.80;99.90
15700;DHT22;7950;42.744;23.174;2023-06-22T06:21:30;22.80;99.90
15700;DHT22;7950;42.744;23.174;2023-06-22T06:34:45;22.90;99.90
15700;DHT22;7950;42.744;23.174;2023-06-22T06:37:13;23.10;99.90
15700;DHT22;7950;42.744;23.174;2023-06-22T06:39:42;23.20;99.90
15700;DHT22;7950;42.744;23.174;2023-06-22T06:42:11;23.20;99.90
15700;DHT22;7950;42.744;23.174;2023-06-22T06:44:39;23.10;99.90
15700;DHT22;7950;42.744;23.174;2023-06-22T06:47:08;23.10;99.90
15700;DHT22;7950;42.744;23.174;2023-06-22T06:49:37;23.20;99.90
15700;DHT22;7950;42.744;23.174;2023-06-22T06:52:08;23.40;99.90
15700;DHT22;7950;42.744;23.174;2023-06-22T06:54:36;23.50;99.90
15700;DHT22;7950;42.744;23.174;2023-06-22T06:57:05;23.50;99.90
15700;DHT22;7950;42.744;23.174;2023-06-22T06:59:33;23.40;99.90
15700;DHT22;7950;42.744;23.174;2023-06-22T07:02:02;23.40;99.90
15700;DHT22;7950;42.744;23.174;2023-06-22T07:04:31;23.40;99.90
15700;DHT22;7950;42.744;23.174;2023-06-22T07:07:01;23.50;99.90
15700;DHT22;7950;42.744;23.174;2023-06-22T07:09:32;23.70;99.90
15700;DHT22;7950;42.744;23.174;2023-06-22T07:12:00;23.80;99.90
15700;DHT22;7950;42.744;23.174;2023-06-22T07:14:29;24.10;99.90
15700;DHT22;7950;42.744;23.174;2023-06-22T07:16:58;24.30;99.90
15700;DHT22;7950;42.744;23.174;2023-06-22T07:19:28;24.50;99.90
15700;DHT22;7950;42.744;23.174;2023-06-22T07:21:57;24.70;99.90
15700;DHT22;7950;42.744;23.174;2023-06-22T07:24:25;24.80;99.90
15700;DHT22;7950;42.744;23.174;2023-06-22T07:26:55;25.10;99.90
15700;DHT22;7950;42.744;23.174;2023-06-22T07:29:24;25.20;99.90
15700;DHT22;7950;42.744;23.174;2023-06-22T07:31:53;25.40;99.90
15700;DHT22;7950;42.744;23.174;2023-06-22T07:34:23;25.70;99.90
15700;DHT22;7950;42.744;23.174;2023-06-22T07:36:51;25.90;99.90
15700;DHT22;7950;42.744;23.174;2023-06-22T07:39:20;26.00;99.90
15700;DHT22;7950;42.744;23.174;2023-06-22T07:41:52;26.20;99.90
15700;DHT22;7950;42.744;23.174;2023-06-22T07:44:23;26.30;99.90
15700;DHT22;7950;42.744;23.174;2023-06-22T07:46:52;26.40;99.90
15700;DHT22;7950;42.744;23.174;2023-06-22T07:49:21;26.60;99.90
15700;DHT22;7950;42.744;23.174;2023-06-22T07:51:50;26.70;99.90
15700;DHT22;7950;42.744;23.174;2023-06-22T07:54:18;26.60;99.90
15700;DHT22;7950;42.744;23.174;2023-06-22T07:56:47;26.50;99.90
15700;DHT22;7950;42.744;23.174;2023-06-22T07:59:15;26.50;99.90
15700;DHT22;7950;42.744;23.174;2023-06-22T08:01:46;26.50;99.90
15700;DHT22;7950;42.744;23.174;2023-06-22T08:04:16;26.60;99.90
15700;DHT22;7950;42.744;23.174;2023-06-22T08:06:44;26.70;99.90
15700;DHT22;7950;42.744;23.174;2023-06-22T08:09:13;26.90;99.90
15700;DHT22;7950;42.744;23.174;2023-06-22T08:11:42;27.00;99.90
15700;DHT22;7950;42.744;23.174;2023-06-22T08:14:10;27.20;99.90
15700;DHT22;7950;42.744;23.174;2023-06-22T08:16:39;27.40;99.90
15700;DHT22;7950;42.744;23.174;2023-06-22T08:19:09;27.50;99.90
15700;DHT22;7950;42.744;23.174;2023-06-22T08:21:37;27.50;99.90
15700;DHT22;7950;42.744;23.174;2023-06-22T08:24:06;27.60;99.90
15700;DHT22;7950;42.744;23.174;2023-06-22T08:26:35;27.70;99.90
15700;DHT22;7950;42.744;23.174;2023-06-22T08:29:04;27.80;99.90
15700;DHT22;7950;42.744;23.174;2023-06-22T08:31:33;28.00;99.90
15700;DHT22;7950;42.744;23.174;2023-06-22T08:34:02;28.10;99.90
15700;DHT22;7950;42.744;23.174;2023-06-22T08:36:32;28.20;99.90
15700;DHT22;7950;42.744;23.174;2023-06-22T08:39:08;28.30;99.90
15700;DHT22;7950;42.744;23.174;2023-06-22T08:41:37;28.40;99.90
15700;DHT22;7950;42.744;23.174;2023-06-22T08:44:05;28.40;99.90
15700;DHT22;7950;42.744;23.174;2023-06-22T08:46:34;28.60;99.90
15700;DHT22;7950;42.744;23.174;2023-06-22T08:49:03;28.60;97.50
15700;DHT22;7950;42.744;23.174;2023-06-22T08:51:33;28.60;99.90
15700;DHT22;7950;42.744;23.174;2023-06-22T08:54:02;28.60;96.40
15700;DHT22;7950;42.744;23.174;2023-06-22T08:56:30;28.30;97.90
15700;DHT22;7950;42.744;23.174;2023-06-22T08:58:59;28.30;99.90
15700;DHT22;7950;42.744;23.174;2023-06-22T09:01:28;28.50;99.90
15700;DHT22;7950;42.744;23.174;2023-06-22T09:03:56;28.60;99.90
15700;DHT22;7950;42.744;23.174;2023-06-22T09:06:27;28.60;99.30
15700;DHT22;7950;42.744;23.174;2023-06-22T09:08:59;28.70;99.90
15700;DHT22;7950;42.744;23.174;2023-06-22T09:11:28;28.90;99.90
15700;DHT22;7950;42.744;23.174;2023-06-22T09:13:56;29.00;99.90
15700;DHT22;7950;42.744;23.174;2023-06-22T09:16:25;29.10;99.90
15700;DHT22;7950;42.744;23.174;2023-06-22T09:18:53;29.30;99.80
15700;DHT22;7950;42.744;23.174;2023-06-22T09:21:23;29.40;96.30
15700;DHT22;7950;42.744;23.174;2023-06-22T09:23:51;29.40;96.40
15700;DHT22;7950;42.744;23.174;2023-06-22T09:26:58;29.50;96.90
15700;DHT22;7950;42.744;23.174;2023-06-22T09:33:10;29.70;93.10
15700;DHT22;7950;42.744;23.174;2023-06-22T09:35:38;29.70;92.30
15700;DHT22;7950;42.744;23.174;2023-06-22T09:38:07;29.70;97.00
15700;DHT22;7950;42.744;23.174;2023-06-22T09:40:35;29.80;95.80
15700;DHT22;7950;42.744;23.174;2023-06-22T09:43:08;29.80;95.80
15700;DHT22;7950;42.744;23.174;2023-06-22T09:45:37;29.70;90.90
15700;DHT22;7950;42.744;23.174;2023-06-22T09:48:06;29.70;91.90
15700;DHT22;7950;42.744;23.174;2023-06-22T09:50:36;29.80;95.30
15700;DHT22;7950;42.744;23.174;2023-06-22T09:53:05;29.80;90.60
15700;DHT22;7950;42.744;23.174;2023-06-22T09:55:34;29.80;86.60
15700;DHT22;7950;42.744;23.174;2023-06-22T09:58:02;29.90;91.70
15700;DHT22;7950;42.744;23.174;2023-06-22T10:00:32;29.90;92.00
15700;DHT22;7950;42.744;23.174;2023-06-22T10:03:01;30.00;91.20
15700;DHT22;7950;42.744;23.174;2023-06-22T10:05:30;30.10;90.90
15700;DHT22;7950;42.744;23.174;2023-06-22T10:07:59;30.10;88.10
15700;DHT22;7950;42.744;23.174;2023-06-22T10:10:28;30.00;88.20
15700;DHT22;7950;42.744;23.174;2023-06-22T10:12:57;30.10;89.10
15700;DHT22;7950;42.744;23.174;2023-06-22T10:15:36;30.20;88.40
15700;DHT22;7950;42.744;23.174;2023-06-22T10:18:05;30.30;84.40
15700;DHT22;7950;42.744;23.174;2023-06-22T10:20:34;30.40;81.90
15700;DHT22;7950;42.744;23.174;2023-06-22T10:23:03;30.50;81.80
15700;DHT22;7950;42.744;23.174;2023-06-22T10:25:31;30.50;77.10
15700;DHT22;7950;42.744;23.174;2023-06-22T10:28:00;30.40;75.20
15700;DHT22;7950;42.744;23.174;2023-06-22T10:30:28;30.30;74.00
15700;DHT22;7950;42.744;23.174;2023-06-22T10:32:58;30.20;75.00
15700;DHT22;7950;42.744;23.174;2023-06-22T10:35:27;30.00;72.90
15700;DHT22;7950;42.744;23.174;2023-06-22T10:37:56;29.90;75.90
15700;DHT22;7950;42.744;23.174;2023-06-22T10:40:25;30.00;77.70
15700;DHT22;7950;42.744;23.174;2023-06-22T10:42:53;30.10;77.80
15700;DHT22;7950;42.744;23.174;2023-06-22T10:45:22;30.20;76.70
15700;DHT22;7950;42.744;23.174;2023-06-22T10:47:51;30.20;74.00
15700;DHT22;7950;42.744;23.174;2023-06-22T10:50:21;30.20;73.50
15700;DHT22;7950;42.744;23.174;2023-06-22T10:52:51;30.30;76.20
15700;DHT22;7950;42.744;23.174;2023-06-22T10:55:19;30.40;79.40
15700;DHT22;7950;42.744;23.174;2023-06-22T10:57:48;30.50;78.60
15700;DHT22;7950;42.744;23.174;2023-06-22T11:00:17;30.50;77.10
15700;DHT22;7950;42.744;23.174;2023-06-22T11:02:45;30.40;76.10
15700;DHT22;7950;42.744;23.174;2023-06-22T11:05:14;30.40;77.80
15700;DHT22;7950;42.744;23.174;2023-06-22T11:07:44;30.30;77.10
15700;DHT22;7950;42.744;23.174;2023-06-22T11:10:13;30.40;76.80
15700;DHT22;7950;42.744;23.174;2023-06-22T11:12:42;30.30;76.90
15700;DHT22;7950;42.744;23.174;2023-06-22T11:15:11;30.40;77.50
15700;DHT22;7950;42.744;23.174;2023-06-22T11:17:40;30.50;75.50
15700;DHT22;7950;42.744;23.174;2023-06-22T11:20:09;30.50;74.00
15700;DHT22;7950;42.744;23.174;2023-06-22T11:22:39;30.40;72.40
15700;DHT22;7950;42.744;23.174;2023-06-22T11:25:09;30.40;73.70
15700;DHT22;7950;42.744;23.174;2023-06-22T11:27:39;30.40;72.90
15700;DHT22;7950;42.744;23.174;2023-06-22T11:30:09;30.30;76.00
15700;DHT22;7950;42.744;23.174;2023-06-22T11:32:38;30.50;77.80
15700;DHT22;7950;42.744;23.174;2023-06-22T11:35:07;30.60;73.90
15700;DHT22;7950;42.744;23.174;2023-06-22T11:37:36;30.70;75.80
15700;DHT22;7950;42.744;23.174;2023-06-22T11:40:05;30.70;73.60
15700;DHT22;7950;42.744;23.174;2023-06-22T11:42:37;30.80;72.40
15700;DHT22;7950;42.744;23.174;2023-06-22T11:45:07;30.60;72.40
15700;DHT22;7950;42.744;23.174;2023-06-22T11:47:36;30.60;77.70
15700;DHT22;7950;42.744;23.174;2023-06-22T11:50:07;30.70;74.60
15700;DHT22;7950;42.744;23.174;2023-06-22T11:52:36;30.70;71.40
15700;DHT22;7950;42.744;23.174;2023-06-22T11:55:06;30.90;73.00
15700;DHT22;7950;42.744;23.174;2023-06-22T11:57:38;31.10;74.10
15700;DHT22;7950;42.744;23.174;2023-06-22T12:00:07;31.30;74.70
15700;DHT22;7950;42.744;23.174;2023-06-22T12:02:44;31.30;71.80
15700;DHT22;7950;42.744;23.174;2023-06-22T12:05:13;30.90;71.60
15700;DHT22;7950;42.744;23.174;2023-06-22T12:07:42;30.60;71.40
15700;DHT22;7950;42.744;23.174;2023-06-22T12:10:10;30.20;77.10
15700;DHT22;7950;42.744;23.174;2023-06-22T12:12:41;29.50;96.50
15700;DHT22;7950;42.744;23.174;2023-06-22T12:26:36;27.40;99.90
15700;DHT22;7950;42.744;23.174;2023-06-22T12:29:05;23.00;99.90
15700;DHT22;7950;42.744;23.174;2023-06-22T12:43:54;22.50;99.90
15700;DHT22;7950;42.744;23.174;2023-06-22T12:46:23;22.20;99.90
15700;DHT22;7950;42.744;23.174;2023-06-22T12:48:52;22.20;99.90
15700;DHT22;7950;42.744;23.174;2023-06-22T12:51:21;22.30;99.90
15700;DHT22;7950;42.744;23.174;2023-06-22T12:53:50;22.30;99.90
15700;DHT22;7950;42.744;23.174;2023-06-22T12:56:18;22.30;99.90
15700;DHT22;7950;42.744;23.174;2023-06-22T12:58:47;22.40;99.90
15700;DHT22;7950;42.744;23.174;2023-06-22T13:01:17;22.40;99.90
15700;DHT22;7950;42.744;23.174;2023-06-22T13:03:46;22.50;99.90
15700;DHT22;7950;42.744;23.174;2023-06-22T13:06:14;22.40;99.90
15700;DHT22;7950;42.744;23.174;2023-06-22T13:08:43;22.30;99.90
15700;DHT22;7950;42.744;23.174;2023-06-22T13:11:31;22.30;99.90
15700;DHT22;7950;42.744;23.174;2023-06-22T13:14:00;22.30;99.90
15700;DHT22;7950;42.744;23.174;2023-06-22T13:16:33;22.20;99.90
15700;DHT22;7950;42.744;23.174;2023-06-22T13:19:02;22.20;99.90
15700;DHT22;7950;42.744;23.174;2023-06-22T13:21:31;22.10;99.90
15700;DHT22;7950;42.744;23.174;2023-06-22T13:24:00;22.00;99.90
15700;DHT22;7950;42.744;23.174;2023-06-22T13:38:38;21.90;99.90
15700;DHT22;7950;42.744;23.174;2023-06-22T13:41:06;21.80;99.90
15700;DHT22;7950;42.744;23.174;2023-06-22T13:43:35;22.00;99.90
15700;DHT22;7950;42.744;23.174;2023-06-22T13:46:03;22.00;99.90
15700;DHT22;7950;42.744;23.174;2023-06-22T13:48:32;22.10;99.90
15700;DHT22;7950;42.744;23.174;2023-06-22T13:51:00;22.10;99.90
15700;DHT22;7950;42.744;23.174;2023-06-22T13:53:29;22.10;99.90
15700;DHT22;7950;42.744;23.174;2023-06-22T14:07:57;22.00;99.90
15700;DHT22;7950;42.744;23.174;2023-06-22T14:10:26;21.80;99.90
15700;DHT22;7950;42.744;23.174;2023-06-22T14:12:55;21.70;99.90
15700;DHT22;7950;42.744;23.174;2023-06-22T14:15:23;21.70;99.90
15700;DHT22;7950;42.744;23.174;2023-06-22T14:17:52;21.70;99.90
15700;DHT22;7950;42.744;23.174;2023-06-22T14:20:20;21.60;99.90
15700;DHT22;7950;42.744;23.174;2023-06-22T14:22:49;21.60;99.90
15700;DHT22;7950;42.744;23.174;2023-06-22T14:25:19;21.70;99.90
15700;DHT22;7950;42.744;23.174;2023-06-22T14:27:47;21.70;99.90
15700;DHT22;7950;42.744;23.174;2023-06-22T14:30:16;21.80;99.90
15700;DHT22;7950;42.744;23.174;2023-06-22T14:32:45;21.90;99.90
15700;DHT22;7950;42.744;23.174;2023-06-22T14:35:13;21.90;99.90
15700;DHT22;7950;42.744;23.174;2023-06-22T14:37:42;22.00;99.90
15700;DHT22;7950;42.744;23.174;2023-06-22T14:40:11;22.00;99.90
15700;DHT22;7950;42.744;23.174;2023-06-22T14:42:42;22.00;99.90
15700;DHT22;7950;42.744;23.174;2023-06-22T14:45:10;22.10;99.90
15700;DHT22;7950;42.744;23.174;2023-06-22T14:47:40;22.10;99.90
15700;DHT22;7950;42.744;23.174;2023-06-22T14:50:09;22.20;99.90
15700;DHT22;7950;42.744;23.174;2023-06-22T15:03:36;22.30;99.90
15700;DHT22;7950;42.744;23.174;2023-06-22T15:06:05;22.50;99.90
15700;DHT22;7950;42.744;23.174;2023-06-22T15:08:34;22.40;99.90
15700;DHT22;7950;42.744;23.174;2023-06-22T15:11:04;22.40;99.90
15700;DHT22;7950;42.744;23.174;2023-06-22T15:13:33;22.40;99.90
15700;DHT22;7950;42.744;23.174;2023-06-22T15:16:03;22.50;99.90
15700;DHT22;7950;42.744;23.174;2023-06-22T15:18:32;22.50;99.90
15700;DHT22;7950;42.744;23.174;2023-06-22T15:21:04;22.60;99.90
15700;DHT22;7950;42.744;23.174;2023-06-22T15:23:33;22.70;99.90
15700;DHT22;7950;42.744;23.174;2023-06-22T15:26:03;22.80;99.90
15700;DHT22;7950;42.744;23.174;2023-06-22T15:28:33;23.00;99.90
15700;DHT22;7950;42.744;23.174;2023-06-22T15:31:05;23.20;99.90
15700;DHT22;7950;42.744;23.174;2023-06-22T15:33:34;23.40;99.90
15700;DHT22;7950;42.744;23.174;2023-06-22T15:36:06;23.60;99.90
15700;DHT22;7950;42.744;23.174;2023-06-22T15:38:35;23.80;99.90
15700;DHT22;7950;42.744;23.174;2023-06-22T15:41:03;24.00;99.90
15700;DHT22;7950;42.744;23.174;2023-06-22T15:43:32;24.00;99.90
15700;DHT22;7950;42.744;23.174;2023-06-22T15:46:01;24.00;99.90
15700;DHT22;7950;42.744;23.174;2023-06-22T15:48:29;23.90;99.90
15700;DHT22;7950;42.744;23.174;2023-06-22T15:50:58;23.80;99.90
15700;DHT22;7950;42.744;23.174;2023-06-22T15:53:28;23.70;99.90
15700;DHT22;7950;42.744;23.174;2023-06-22T15:55:56;23.60;99.90
15700;DHT22;7950;42.744;23.174;2023-06-22T15:58:25;23.60;99.90
15700;DHT22;7950;42.744;23.174;2023-06-22T16:00:54;23.60;99.90
15700;DHT22;7950;42.744;23.174;2023-06-22T16:03:23;23.50;99.90
15700;DHT22;7950;42.744;23.174;2023-06-22T16:05:51;23.40;99.90
15700;DHT22;7950;42.744;23.174;2023-06-22T16:08:20;23.40;99.90
15700;DHT22;7950;42.744;23.174;2023-06-22T16:10:50;23.30;99.90
15700;DHT22;7950;42.744;23.174;2023-06-22T16:13:18;23.30;99.90
15700;DHT22;7950;42.744;23.174;2023-06-22T16:15:47;23.20;99.90
15700;DHT22;7950;42.744;23.174;2023-06-22T16:18:15;23.20;99.90
15700;DHT22;7950;42.744;23.174;2023-06-22T16:20:44;23.20;99.90
15700;DHT22;7950;42.744;23.174;2023-06-22T16:23:13;23.30;99.90
15700;DHT22;7950;42.744;23.174;2023-06-22T16:25:42;23.30;99.90
15700;DHT22;7950;42.744;23.174;2023-06-22T16:28:12;23.30;99.90
15700;DHT22;7950;42.744;23.174;2023-06-22T16:30:41;23.30;99.90
15700;DHT22;7950;42.744;23.174;2023-06-22T16:33:10;23.30;99.90
15700;DHT22;7950;42.744;23.174;2023-06-22T16:35:38;23.30;99.90
15700;DHT22;7950;42.744;23.174;2023-06-22T16:38:08;23.40;99.90
15700;DHT22;7950;42.744;23.174;2023-06-22T16:40:36;23.40;99.90
15700;DHT22;7950;42.744;23.174;2023-06-22T16:43:05;23.50;99.90
15700;DHT22;7950;42.744;23.174;2023-06-22T16:45:34;23.50;99.90
15700;DHT22;7950;42.744;23.174;2023-06-22T16:48:03;23.50;99.90
15700;DHT22;7950;42.744;23.174;2023-06-22T16:50:33;23.60;99.90
15700;DHT22;7950;42.744;23.174;2023-06-22T16:53:01;23.60;99.90
15700;DHT22;7950;42.744;23.174;2023-06-22T16:55:30;23.70;99.90
15700;DHT22;7950;42.744;23.174;2023-06-22T16:58:00;23.80;99.90
15700;DHT22;7950;42.744;23.174;2023-06-22T17:00:31;23.80;99.90
15700;DHT22;7950;42.744;23.174;2023-06-22T17:03:03;23.80;99.90